Time;durP1;ratioP1;P1;durP2;ratioP2;P2;SDS_P1;SDS_P2;PMS_P1;PMS_P2;Temp;Humidity;BMP_temperature;BMP_pressure;BME280_temperature;BME280_humidity;BME280_pressure;Samples;Min_cycle;Max_cycle;Signal;HPM_P1;HPM_P2
2021/01/21 00:01:21;;;;;;;2.50;1.10;;;11.10;99.90;;;;;;5049729;28;20380;-71
2021/01/21 00:03:47;;;;;;;2.42;1.50;;;11.20;99.90;;;;;;5049781;28;20036;-71
2021/01/21 00:06:13;;;;;;;1.33;1.00;;;11.20;99.90;;;;;;5040496;28;20036;-71
2021/01/21 00:08:40;;;;;;;2.38;1.30;;;11.20;99.90;;;;;;5044316;28;20032;-71
2021/01/21 00:11:05;;;;;;;2.50;1.20;;;11.20;99.90;;;;;;5046309;28;20029;-71
2021/01/21 00:13:31;;;;;;;4.43;1.42;;;11.20;99.90;;;;;;5046392;28;20033;-71
2021/01/21 00:15:56;;;;;;;1.63;1.15;;;11.20;99.90;;;;;;5051611;28;20029;-71
2021/01/21 00:18:22;;;;;;;2.55;1.27;;;11.30;99.90;;;;;;5036145;28;20354;-71
2021/01/21 00:20:48;;;;;;;2.42;1.05;;;11.20;99.90;;;;;;5053847;28;20036;-71
2021/01/21 00:23:13;;;;;;;4.10;1.08;;;11.20;99.90;;;;;;5053762;28;20427;-71
2021/01/21 00:25:39;;;;;;;2.05;1.02;;;11.00;99.90;;;;;;5053721;28;20239;-71
2021/01/21 00:28:05;;;;;;;2.45;1.17;;;11.10;99.90;;;;;;5053338;28;20482;-71
2021/01/21 00:30:31;;;;;;;2.83;1.25;;;11.10;99.90;;;;;;5032199;28;20027;-71
2021/01/21 00:32:56;;;;;;;4.57;1.20;;;11.10;99.90;;;;;;5053074;28;20090;-71
2021/01/21 00:35:22;;;;;;;4.32;1.05;;;11.10;99.90;;;;;;5053330;28;20420;-71
2021/01/21 00:37:48;;;;;;;4.50;1.35;;;11.20;99.90;;;;;;5053166;28;20025;-71
2021/01/21 00:40:13;;;;;;;4.97;1.30;;;11.20;99.90;;;;;;5054002;28;20029;-70
2021/01/21 00:42:39;;;;;;;2.42;1.15;;;11.20;99.90;;;;;;5053700;28;20033;-71
2021/01/21 00:45:05;;;;;;;7.13;1.58;;;11.20;99.90;;;;;;5051900;28;20021;-70
2021/01/21 00:47:31;;;;;;;2.30;1.10;;;11.20;99.90;;;;;;5052684;28;20052;-70
2021/01/21 00:49:57;;;;;;;2.97;1.10;;;11.10;99.90;;;;;;5052527;28;20055;-70
2021/01/21 00:52:22;;;;;;;3.65;1.30;;;11.10;99.90;;;;;;5052957;28;20057;-71
2021/01/21 00:54:48;;;;;;;2.60;1.38;;;11.20;99.90;;;;;;5053986;28;20021;-71
2021/01/21 00:57:13;;;;;;;3.22;1.45;;;11.10;99.90;;;;;;5053354;28;20021;-70
2021/01/21 00:59:39;;;;;;;5.18;1.23;;;11.20;99.90;;;;;;5052956;28;20016;-70
2021/01/21 01:02:05;;;;;;;2.45;1.00;;;11.20;99.90;;;;;;5052862;28;20114;-70
2021/01/21 01:04:30;;;;;;;4.63;1.10;;;11.10;99.90;;;;;;5054336;28;20025;-70
2021/01/21 01:06:56;;;;;;;3.10;0.98;;;11.10;99.90;;;;;;5054548;28;20112;-71
2021/01/21 01:09:21;;;;;;;5.25;1.40;;;11.10;99.90;;;;;;5050738;28;20033;-70
2021/01/21 01:11:48;;;;;;;4.05;1.45;;;11.10;99.90;;;;;;5053190;28;20021;-70
2021/01/21 01:14:13;;;;;;;2.40;1.30;;;11.20;99.90;;;;;;5052974;28;20025;-70
2021/01/21 01:16:39;;;;;;;4.18;1.55;;;11.20;99.90;;;;;;5053122;28;20021;-71
2021/01/21 01:19:05;;;;;;;3.63;1.20;;;11.20;99.90;;;;;;5052847;28;20101;-70
2021/01/21 01:21:30;;;;;;;3.00;1.58;;;11.20;99.90;;;;;;5052827;28;20385;-70
2021/01/21 01:23:56;;;;;;;2.63;1.33;;;11.20;99.90;;;;;;5052174;28;20033;-70
2021/01/21 01:26:22;;;;;;;3.92;1.20;;;11.20;99.90;;;;;;5046209;28;20473;-71
2021/01/21 01:28:48;;;;;;;2.67;1.20;;;11.20;99.90;;;;;;5050104;28;20037;-70
2021/01/21 01:31:14;;;;;;;3.13;1.02;;;11.20;99.90;;;;;;5051837;28;20021;-70
2021/01/21 01:33:40;;;;;;;2.28;1.23;;;11.10;99.90;;;;;;5052228;28;20024;-71
2021/01/21 01:36:06;;;;;;;2.80;1.33;;;11.20;99.90;;;;;;5051913;28;20445;-71
2021/01/21 01:38:32;;;;;;;3.63;1.48;;;11.30;99.90;;;;;;5051959;28;20037;-70
2021/01/21 01:40:57;;;;;;;4.18;1.23;;;11.40;99.90;;;;;;5040150;28;20033;-70
2021/01/21 01:43:23;;;;;;;2.20;1.38;;;11.40;99.90;;;;;;5033156;28;20052;-70
2021/01/21 01:45:49;;;;;;;3.33;1.40;;;11.50;99.90;;;;;;5051855;28;20032;-70
2021/01/21 01:48:17;;;;;;;2.85;1.20;;;11.40;99.90;;;;;;5049317;28;20032;-70
2021/01/21 01:50:42;;;;;;;3.55;1.30;;;11.50;99.90;;;;;;5030930;28;20021;-70
2021/01/21 01:53:08;;;;;;;6.50;1.58;;;11.50;99.90;;;;;;5052759;28;20071;-70
2021/01/21 01:55:34;;;;;;;3.42;1.10;;;11.60;99.90;;;;;;5052757;28;20037;-71
2021/01/21 01:58:02;;;;;;;6.90;1.08;;;11.50;99.90;;;;;;5051421;28;20025;-70
2021/01/21 02:00:28;;;;;;;3.63;0.98;;;11.60;99.90;;;;;;5053076;28;20033;-71
2021/01/21 02:02:53;;;;;;;2.53;1.23;;;11.60;99.90;;;;;;5051763;28;20037;-71
2021/01/21 02:05:20;;;;;;;5.43;1.02;;;11.70;99.90;;;;;;5053843;28;20021;-70
2021/01/21 02:07:47;;;;;;;4.05;1.25;;;11.70;99.90;;;;;;5053551;28;20095;-70
2021/01/21 02:10:15;;;;;;;6.63;1.67;;;11.70;99.90;;;;;;5047242;28;20029;-70
2021/01/21 02:12:58;;;;;;;3.08;1.02;;;11.60;99.90;;;;;;5052699;28;20024;-70
2021/01/21 02:15:33;;;;;;;3.15;1.02;;;11.70;99.90;;;;;;5053023;28;20072;-71
2021/01/21 02:18:19;;;;;;;4.97;1.30;;;11.70;99.90;;;;;;5052590;28;20108;-70
2021/01/21 02:21:15;;;;;;;2.50;1.10;;;11.70;99.90;;;;;;5053545;28;20063;-70
2021/01/21 02:23:52;;;;;;;1.25;0.90;;;11.80;99.90;;;;;;5053199;28;20033;-71
2021/01/21 02:26:27;;;;;;;3.08;1.15;;;11.80;99.90;;;;;;5052995;28;20021;-71
2021/01/21 02:29:10;;;;;;;2.67;1.17;;;11.90;99.90;;;;;;5049163;28;20399;-71
2021/01/21 02:31:48;;;;;;;4.15;1.10;;;11.90;99.90;;;;;;5045408;28;20021;-71
2021/01/21 02:34:21;;;;;;;2.67;0.90;;;11.90;99.90;;;;;;5035008;28;20060;-71
2021/01/21 02:36:54;;;;;;;3.58;1.17;;;12.00;99.90;;;;;;5044501;28;20080;-71
2021/01/21 02:39:21;;;;;;;1.80;1.10;;;11.90;99.90;;;;;;5047022;28;20035;-71
2021/01/21 02:41:46;;;;;;;3.50;1.02;;;11.90;99.90;;;;;;5052649;28;20037;-71
2021/01/21 02:44:13;;;;;;;1.83;0.95;;;12.00;99.90;;;;;;5052916;28;20013;-71
2021/01/21 02:46:39;;;;;;;3.05;1.10;;;12.00;99.90;;;;;;5034804;28;20024;-71
2021/01/21 02:49:05;;;;;;;2.50;1.25;;;12.00;99.90;;;;;;5051961;28;20085;-71
2021/01/21 02:51:46;;;;;;;3.55;1.30;;;12.00;99.90;;;;;;5053072;28;20420;-71
2021/01/21 02:54:37;;;;;;;6.07;1.38;;;11.90;99.90;;;;;;5052790;28;20021;-71
2021/01/21 02:57:08;;;;;;;2.67;1.50;;;12.00;99.90;;;;;;5052336;28;20025;-71
2021/01/21 02:59:41;;;;;;;3.28;1.15;;;12.00;99.90;;;;;;5052400;28;20025;-71
2021/01/21 03:02:09;;;;;;;4.00;1.33;;;12.00;99.90;;;;;;5053034;28;20377;-71
2021/01/21 03:04:41;;;;;;;2.60;0.90;;;12.10;99.90;;;;;;5052666;28;20044;-71
2021/01/21 03:07:09;;;;;;;1.65;0.95;;;12.00;99.90;;;;;;5052834;28;20032;-70
2021/01/21 03:09:35;;;;;;;3.38;1.27;;;11.90;99.90;;;;;;5042249;28;20025;-71
2021/01/21 03:12:26;;;;;;;1.95;1.00;;;11.90;99.90;;;;;;5032910;28;20502;-70
2021/01/21 03:14:54;;;;;;;3.95;1.15;;;11.90;99.90;;;;;;5032688;28;20024;-71
2021/01/21 03:17:24;;;;;;;1.85;0.98;;;11.90;99.90;;;;;;5032540;28;20075;-70
2021/01/21 03:19:50;;;;;;;1.05;0.77;;;12.00;99.90;;;;;;5031528;28;20487;-70
2021/01/21 03:22:19;;;;;;;3.05;0.70;;;11.90;99.90;;;;;;5032606;28;20086;-71
2021/01/21 03:24:45;;;;;;;5.03;1.08;;;11.80;99.90;;;;;;5032327;28;20450;-71
2021/01/21 03:27:10;;;;;;;2.78;1.40;;;11.80;99.90;;;;;;5034533;28;20021;-71
2021/01/21 03:29:36;;;;;;;2.50;0.90;;;11.80;99.90;;;;;;5047980;28;20014;-71
2021/01/21 03:32:02;;;;;;;2.78;1.00;;;11.80;99.90;;;;;;5052654;28;20033;-71
2021/01/21 03:34:28;;;;;;;1.92;1.00;;;11.80;99.90;;;;;;5051871;28;20013;-71
2021/01/21 03:36:54;;;;;;;4.18;1.08;;;11.90;99.90;;;;;;5052227;28;20350;-70
2021/01/21 03:39:19;;;;;;;1.00;0.90;;;11.80;99.90;;;;;;5051809;28;20523;-70
2021/01/21 03:41:45;;;;;;;1.77;1.02;;;11.80;99.90;;;;;;5052378;28;20029;-71
2021/01/21 03:44:11;;;;;;;4.40;1.00;;;11.90;99.90;;;;;;5052483;28;20145;-71
2021/01/21 03:46:37;;;;;;;6.50;1.17;;;11.80;99.90;;;;;;5051849;28;20060;-71
2021/01/21 03:49:03;;;;;;;5.20;1.27;;;11.90;99.90;;;;;;5046906;28;20049;-70
2021/01/21 03:51:28;;;;;;;3.90;1.92;;;11.80;99.90;;;;;;5022377;28;20028;-71
2021/01/21 03:53:54;;;;;;;2.95;1.15;;;11.80;99.90;;;;;;5052441;28;20477;-71
2021/01/21 03:56:19;;;;;;;1.67;1.15;;;11.90;99.90;;;;;;5051679;28;20029;-70
2021/01/21 03:58:45;;;;;;;2.90;0.95;;;11.80;99.90;;;;;;5052227;28;20063;-71
2021/01/21 04:01:10;;;;;;;3.40;1.20;;;11.80;99.90;;;;;;5052374;28;20022;-71
2021/01/21 04:03:36;;;;;;;3.40;1.20;;;11.90;99.90;;;;;;5052138;28;20059;-70
2021/01/21 04:06:02;;;;;;;1.98;1.38;;;11.70;99.90;;;;;;5052150;28;20024;-71
2021/01/21 04:08:28;;;;;;;3.17;1.00;;;11.70;99.90;;;;;;5051009;28;20071;-71
2021/01/21 04:10:53;;;;;;;3.63;1.50;;;11.60;99.90;;;;;;5038142;28;20108;-71
2021/01/21 04:13:19;;;;;;;4.13;1.35;;;11.50;99.90;;;;;;5033707;28;20029;-71
2021/01/21 04:15:46;;;;;;;3.50;0.90;;;11.20;99.90;;;;;;5051618;28;20025;-70
2021/01/21 04:18:12;;;;;;;2.35;0.40;;;10.80;99.90;;;;;;5051856;28;20060;-70
2021/01/21 04:20:38;;;;;;;1.85;0.35;;;10.30;99.90;;;;;;5051755;28;20134;-69
2021/01/21 04:23:03;;;;;;;1.38;0.30;;;9.90;99.90;;;;;;5051375;28;20033;-70
2021/01/21 04:25:29;;;;;;;1.63;0.40;;;9.70;99.90;;;;;;5051722;28;20021;-71
2021/01/21 04:27:54;;;;;;;1.55;0.22;;;9.70;99.90;;;;;;5044255;28;20021;-70
2021/01/21 04:30:21;;;;;;;1.95;0.40;;;9.50;99.90;;;;;;5033003;28;20465;-70
2021/01/21 04:32:46;;;;;;;1.33;0.30;;;9.60;99.90;;;;;;5051892;28;20048;-70
2021/01/21 04:35:12;;;;;;;5.05;0.50;;;9.40;99.90;;;;;;5051986;28;20110;-70
2021/01/21 04:37:38;;;;;;;3.38;0.60;;;9.40;99.90;;;;;;5051279;28;20024;-70
2021/01/21 04:40:04;;;;;;;2.42;1.17;;;9.30;99.90;;;;;;5046302;28;20485;-71
2021/01/21 04:42:31;;;;;;;4.25;0.50;;;9.10;99.90;;;;;;5052694;28;20033;-71
2021/01/21 04:44:57;;;;;;;4.85;0.60;;;9.00;99.90;;;;;;5055706;28;20426;-71
2021/01/21 04:47:25;;;;;;;2.70;0.63;;;8.90;99.90;;;;;;5054858;28;20108;-71
2021/01/21 04:49:53;;;;;;;2.22;0.60;;;9.00;99.90;;;;;;5043479;28;20056;-70
2021/01/21 04:52:21;;;;;;;3.53;0.70;;;8.90;99.90;;;;;;5051023;28;20362;-71
2021/01/21 04:54:53;;;;;;;2.70;0.60;;;8.90;99.90;;;;;;5055320;28;20055;-71
2021/01/21 04:57:28;;;;;;;3.08;0.55;;;8.80;99.90;;;;;;5054756;28;20021;-70
2021/01/21 04:59:55;;;;;;;2.22;0.40;;;8.90;99.90;;;;;;5055351;28;20111;-71
2021/01/21 05:02:22;;;;;;;3.72;0.70;;;8.70;99.90;;;;;;5055107;28;20048;-70
2021/01/21 05:04:49;;;;;;;2.80;0.47;;;8.60;99.90;;;;;;5054820;28;20029;-70
2021/01/21 05:07:15;;;;;;;4.20;0.50;;;8.70;99.90;;;;;;5036529;28;20025;-71
2021/01/21 05:09:41;;;;;;;3.55;0.57;;;8.70;99.90;;;;;;5043797;28;20449;-71
2021/01/21 05:12:07;;;;;;;2.05;0.35;;;8.60;99.90;;;;;;5050812;28;20025;-71
2021/01/21 05:14:33;;;;;;;1.58;0.40;;;8.60;99.90;;;;;;5054202;28;20013;-71
2021/01/21 05:16:59;;;;;;;1.85;0.32;;;8.60;99.90;;;;;;5054540;28;20029;-71
2021/01/21 05:19:24;;;;;;;4.40;0.77;;;8.60;99.90;;;;;;5054193;28;20048;-71
2021/01/21 05:21:50;;;;;;;2.20;0.55;;;8.60;99.90;;;;;;5053963;28;20433;-71
2021/01/21 05:24:16;;;;;;;2.65;0.60;;;8.50;99.90;;;;;;5038677;28;20070;-71
2021/01/21 05:26:43;;;;;;;3.50;0.60;;;8.60;99.90;;;;;;5053236;28;20465;-71
2021/01/21 05:29:10;;;;;;;4.25;0.80;;;8.50;99.90;;;;;;5053813;28;20027;-71
2021/01/21 05:31:36;;;;;;;4.95;1.10;;;8.70;99.90;;;;;;5054217;28;20025;-71
2021/01/21 05:34:07;;;;;;;5.53;1.00;;;8.60;99.90;;;;;;5053236;28;20040;-70
2021/01/21 05:36:37;;;;;;;4.40;0.93;;;8.50;99.90;;;;;;5053862;28;20373;-70
2021/01/21 05:39:07;;;;;;;4.55;0.93;;;8.50;99.90;;;;;;5053908;28;20021;-70
2021/01/21 05:41:37;;;;;;;5.00;1.30;;;8.40;99.90;;;;;;5054229;28;20033;-70
2021/01/21 05:44:05;;;;;;;9.38;1.27;;;8.50;99.90;;;;;;5054112;28;20082;-70
2021/01/21 05:46:31;;;;;;;5.75;1.45;;;8.50;99.90;;;;;;5053986;28;20025;-70
2021/01/21 05:48:58;;;;;;;8.25;1.00;;;8.50;99.90;;;;;;5035044;28;20385;-70
2021/01/21 05:51:24;;;;;;;10.38;1.35;;;8.50;99.90;;;;;;5053147;28;20021;-70
2021/01/21 05:53:53;;;;;;;6.82;1.42;;;8.50;99.90;;;;;;5053983;28;20028;-70
2021/01/21 05:56:19;;;;;;;6.10;1.75;;;8.50;99.90;;;;;;5054296;28;20029;-70
2021/01/21 05:58:45;;;;;;;8.93;1.25;;;8.50;99.90;;;;;;5053760;28;20117;-71
2021/01/21 06:01:11;;;;;;;7.43;1.42;;;8.50;99.90;;;;;;5054205;28;20452;-70
2021/01/21 06:03:37;;;;;;;9.48;0.90;;;8.40;99.90;;;;;;5053453;28;20061;-70
2021/01/21 06:06:07;;;;;;;5.97;1.23;;;8.50;99.90;;;;;;5054237;28;20454;-70
2021/01/21 06:08:38;;;;;;;10.45;1.90;;;8.60;99.90;;;;;;5052123;28;20037;-70
2021/01/21 06:11:07;;;;;;;4.90;0.90;;;8.60;99.90;;;;;;5053894;28;20025;-70
2021/01/21 06:13:37;;;;;;;7.47;1.20;;;8.60;99.90;;;;;;5054056;28;20025;-70
2021/01/21 06:16:06;;;;;;;8.98;1.13;;;8.60;99.90;;;;;;5048187;28;20076;-70
2021/01/21 06:18:32;;;;;;;10.02;1.30;;;8.70;99.90;;;;;;5043543;28;20074;-70
2021/01/21 06:20:59;;;;;;;7.68;1.75;;;8.60;99.90;;;;;;5052999;28;20020;-70
2021/01/21 06:23:25;;;;;;;6.95;1.20;;;8.60;99.90;;;;;;5035749;28;20047;-70
2021/01/21 06:25:56;;;;;;;5.30;1.30;;;8.60;99.90;;;;;;5053409;28;20029;-70
2021/01/21 06:28:22;;;;;;;7.35;1.10;;;8.50;99.90;;;;;;5053104;28;20025;-70
2021/01/21 06:30:52;;;;;;;7.00;1.33;;;8.50;99.90;;;;;;5038393;28;20024;-70
2021/01/21 06:33:22;;;;;;;4.93;1.02;;;8.40;99.90;;;;;;5052030;28;20104;-71
2021/01/21 06:35:59;;;;;;;9.68;1.58;;;8.40;99.90;;;;;;5053325;28;20010;-71
2021/01/21 06:38:38;;;;;;;15.25;2.10;;;8.40;99.90;;;;;;5052151;28;20036;-71
2021/01/21 06:41:08;;;;;;;9.18;1.13;;;8.30;99.90;;;;;;5052186;28;20033;-71
2021/01/21 06:43:37;;;;;;;7.47;1.33;;;8.40;99.90;;;;;;5035422;28;20453;-71
2021/01/21 06:46:04;;;;;;;9.18;1.45;;;8.30;99.90;;;;;;5053423;28;20013;-71
2021/01/21 06:48:30;;;;;;;9.27;1.88;;;8.30;99.90;;;;;;5051457;28;20033;-71
2021/01/21 06:50:56;;;;;;;9.70;1.50;;;8.20;99.90;;;;;;5039158;28;20083;-71
2021/01/21 06:53:22;;;;;;;10.40;2.55;;;8.20;99.90;;;;;;5053207;28;20068;-71
2021/01/21 06:55:51;;;;;;;8.05;1.90;;;8.20;99.90;;;;;;5052901;28;20055;-71
2021/01/21 06:58:49;;;;;;;7.18;2.03;;;8.20;99.90;;;;;;5052471;28;20021;-71
2021/01/21 07:01:38;;;;;;;7.78;1.55;;;8.20;99.90;;;;;;5052230;28;20481;-71
2021/01/21 07:04:17;;;;;;;12.43;1.90;;;8.10;99.90;;;;;;5038248;28;20496;-71
2021/01/21 07:06:52;;;;;;;9.65;1.75;;;8.20;99.90;;;;;;5038841;28;20049;-69
2021/01/21 07:09:22;;;;;;;8.40;1.80;;;8.20;99.90;;;;;;5044424;28;20030;-69
2021/01/21 07:11:49;;;;;;;7.60;2.03;;;8.20;99.90;;;;;;5047572;28;20053;-69
2021/01/21 07:14:17;;;;;;;13.63;2.83;;;8.00;99.90;;;;;;5040729;28;20052;-70
2021/01/21 07:16:53;;;;;;;11.82;2.70;;;8.10;99.90;;;;;;5050658;28;20393;-70
2021/01/21 07:19:34;;;;;;;11.48;2.53;;;8.10;99.90;;;;;;5051836;28;20028;-70
2021/01/21 07:22:10;;;;;;;10.63;2.60;;;8.10;99.90;;;;;;5052274;28;20025;-70
2021/01/21 07:24:47;;;;;;;10.25;2.92;;;8.10;99.90;;;;;;5039498;28;20021;-70
2021/01/21 07:27:14;;;;;;;12.32;2.47;;;8.10;99.90;;;;;;5051881;28;20021;-71
2021/01/21 07:29:40;;;;;;;13.18;2.90;;;8.10;99.90;;;;;;5040374;28;20473;-71
2021/01/21 07:32:05;;;;;;;13.57;2.67;;;8.00;99.90;;;;;;5046817;28;20052;-70
2021/01/21 07:34:41;;;;;;;13.68;2.13;;;8.10;99.90;;;;;;5052656;28;20017;-71
2021/01/21 07:37:12;;;;;;;11.82;1.83;;;8.10;99.90;;;;;;5051042;28;20025;-70
2021/01/21 07:39:51;;;;;;;11.45;2.08;;;8.00;99.90;;;;;;5052008;28;20108;-71
2021/01/21 07:42:17;;;;;;;12.88;2.90;;;8.10;99.90;;;;;;5051485;28;20033;-71
2021/01/21 07:45:01;;;;;;;8.63;2.22;;;8.10;99.90;;;;;;5052387;28;20028;-71
2021/01/21 07:47:33;;;;;;;10.95;2.35;;;8.00;99.90;;;;;;5051332;28;20017;-70
2021/01/21 07:50:16;;;;;;;7.70;2.13;;;8.00;99.90;;;;;;5033002;28;20104;-71
2021/01/21 07:52:47;;;;;;;12.75;2.22;;;7.90;99.90;;;;;;5024654;28;20032;-70
2021/01/21 07:55:14;;;;;;;5.57;1.67;;;7.90;99.90;;;;;;5051806;28;20063;-70
2021/01/21 07:57:41;;;;;;;14.10;2.45;;;7.90;99.90;;;;;;5026025;28;20033;-71
2021/01/21 08:00:08;;;;;;;9.75;1.88;;;7.90;99.90;;;;;;5035824;28;20067;-70
2021/01/21 08:02:47;;;;;;;8.07;1.92;;;7.90;99.90;;;;;;5048186;28;20052;-70
2021/01/21 08:05:20;;;;;;;13.70;2.00;;;7.80;99.90;;;;;;5036339;28;20454;-70
2021/01/21 08:07:47;;;;;;;12.63;2.83;;;7.90;99.90;;;;;;5048043;28;20027;-70
2021/01/21 08:10:14;;;;;;;21.52;7.57;;;7.90;99.90;;;;;;5049641;28;20014;-70
2021/01/21 08:12:40;;;;;;;7.57;1.92;;;8.00;99.90;;;;;;5050336;28;20013;-70
2021/01/21 08:15:06;;;;;;;8.50;1.73;;;8.00;99.90;;;;;;5050442;28;20043;-71
2021/01/21 08:17:32;;;;;;;18.65;4.53;;;8.00;99.90;;;;;;5053786;28;20024;-70
2021/01/21 08:19:57;;;;;;;15.65;2.45;;;8.00;99.90;;;;;;5054195;28;20075;-70
2021/01/21 08:22:23;;;;;;;8.82;2.30;;;8.10;99.90;;;;;;5043952;28;20021;-70
2021/01/21 08:25:01;;;;;;;7.20;2.88;;;8.10;99.90;;;;;;5050274;28;20033;-70
2021/01/21 08:27:43;;;;;;;11.80;3.28;;;8.10;99.90;;;;;;5047138;28;20027;-70
2021/01/21 08:30:16;;;;;;;7.53;2.20;;;8.10;99.90;;;;;;5042995;28;20485;-71
2021/01/21 08:32:44;;;;;;;8.40;1.77;;;8.00;99.90;;;;;;5051974;28;20385;-70
2021/01/21 08:35:13;;;;;;;8.77;1.50;;;8.00;99.90;;;;;;5054526;28;20028;-70
2021/01/21 08:37:40;;;;;;;10.95;1.70;;;8.00;99.90;;;;;;5053664;28;20025;-70
2021/01/21 08:40:07;;;;;;;12.45;1.88;;;8.00;99.90;;;;;;5048632;28;20469;-70
2021/01/21 08:42:33;;;;;;;10.23;1.90;;;8.10;99.90;;;;;;5045639;28;20455;-70
2021/01/21 08:45:00;;;;;;;11.52;1.95;;;8.00;99.90;;;;;;5053413;28;20096;-70
2021/01/21 08:47:38;;;;;;;4.55;1.25;;;8.10;99.90;;;;;;5052183;28;20112;-70
2021/01/21 08:50:04;;;;;;;7.88;1.85;;;8.00;99.90;;;;;;5051345;28;20066;-70
2021/01/21 08:52:30;;;;;;;8.77;1.85;;;8.10;99.90;;;;;;5048950;28;20036;-70
2021/01/21 08:54:55;;;;;;;10.50;2.40;;;8.00;99.90;;;;;;5052372;28;20013;-69
2021/01/21 08:57:23;;;;;;;7.18;2.25;;;8.10;99.90;;;;;;5052888;28;20108;-69
2021/01/21 08:59:48;;;;;;;13.50;2.70;;;8.10;99.90;;;;;;5052211;28;20102;-70
2021/01/21 09:02:14;;;;;;;8.60;1.85;;;8.10;99.90;;;;;;5051077;28;20516;-70
2021/01/21 09:04:41;;;;;;;8.25;2.22;;;8.10;99.90;;;;;;5044909;28;20032;-70
2021/01/21 09:07:09;;;;;;;7.45;2.38;;;8.10;99.90;;;;;;5051188;28;20500;-70
2021/01/21 09:09:40;;;;;;;13.77;7.10;;;8.10;99.90;;;;;;5048552;28;20449;-70
2021/01/21 09:12:21;;;;;;;7.93;2.03;;;8.00;99.90;;;;;;5042418;28;20474;-70
2021/01/21 09:15:05;;;;;;;6.45;1.30;;;8.00;99.90;;;;;;5044174;28;20047;-70
2021/01/21 09:17:31;;;;;;;5.82;1.55;;;8.10;99.90;;;;;;5052932;28;20090;-70
2021/01/21 09:19:58;;;;;;;10.27;2.35;;;8.10;99.90;;;;;;5038677;28;20537;-69
2021/01/21 09:22:25;;;;;;;9.98;1.42;;;8.20;99.90;;;;;;5038726;28;20052;-74
2021/01/21 09:25:04;;;;;;;6.43;1.63;;;8.20;99.90;;;;;;5048393;28;20091;-70
2021/01/21 09:27:32;;;;;;;11.30;2.38;;;8.20;99.90;;;;;;5052105;28;20599;-70
2021/01/21 09:29:59;;;;;;;12.60;2.85;;;8.40;99.90;;;;;;5039067;28;20080;-70
2021/01/21 09:32:31;;;;;;;5.18;1.45;;;8.40;99.90;;;;;;5041930;28;20028;-70
2021/01/21 09:35:01;;;;;;;8.27;1.67;;;8.40;99.90;;;;;;5046218;28;20017;-70
2021/01/21 09:37:33;;;;;;;9.20;1.98;;;8.50;99.90;;;;;;5021301;28;20023;-70
2021/01/21 09:39:58;;;;;;;7.80;1.52;;;8.40;99.90;;;;;;5052045;28;20055;-70
2021/01/21 09:42:24;;;;;;;7.38;1.70;;;8.40;99.90;;;;;;5048931;28;20083;-70
2021/01/21 09:44:50;;;;;;;6.60;2.00;;;8.40;99.90;;;;;;5045124;28;20028;-70
2021/01/21 09:47:16;;;;;;;9.50;2.03;;;8.40;99.90;;;;;;5050491;28;20412;-70
2021/01/21 09:49:43;;;;;;;9.45;2.22;;;8.40;99.90;;;;;;5049125;28;20028;-70
2021/01/21 09:52:09;;;;;;;6.32;2.08;;;8.50;99.90;;;;;;5036107;28;20454;-69
2021/01/21 09:54:35;;;;;;;6.55;1.60;;;8.50;99.90;;;;;;5036476;28;20053;-70
2021/01/21 09:57:00;;;;;;;10.20;1.88;;;8.60;99.90;;;;;;5047861;28;20056;-70
2021/01/21 09:59:26;;;;;;;7.47;1.50;;;8.60;99.90;;;;;;5044618;28;20025;-71
2021/01/21 10:01:51;;;;;;;6.60;3.28;;;8.60;99.90;;;;;;5047145;28;20021;-71
2021/01/21 10:04:17;;;;;;;11.60;1.60;;;8.60;99.90;;;;;;5036495;28;20026;-71
2021/01/21 10:06:43;;;;;;;6.95;2.00;;;8.60;99.90;;;;;;5050415;28;20029;-71
2021/01/21 10:09:08;;;;;;;8.82;1.55;;;8.70;99.90;;;;;;5049594;28;20017;-70
2021/01/21 10:11:34;;;;;;;8.05;1.60;;;8.70;99.90;;;;;;5029579;28;20465;-71
2021/01/21 10:14:01;;;;;;;8.48;2.03;;;8.70;99.90;;;;;;5047015;28;20070;-71
2021/01/21 10:16:28;;;;;;;11.38;1.83;;;8.80;99.90;;;;;;5044993;28;20519;-70
2021/01/21 10:18:54;;;;;;;9.45;1.63;;;8.70;99.90;;;;;;5040856;28;20477;-71
2021/01/21 10:21:19;;;;;;;6.82;1.65;;;8.70;99.90;;;;;;5045502;28;20036;-71
2021/01/21 10:23:45;;;;;;;10.95;1.98;;;8.80;99.90;;;;;;5019030;28;20035;-71
2021/01/21 10:26:11;;;;;;;8.75;2.08;;;8.80;99.90;;;;;;5048280;28;20025;-71
2021/01/21 10:28:36;;;;;;;6.22;1.60;;;8.80;99.90;;;;;;5038424;28;20053;-71
2021/01/21 10:31:02;;;;;;;5.47;1.35;;;8.80;99.90;;;;;;5043950;28;20464;-70
2021/01/21 10:33:27;;;;;;;11.50;2.22;;;8.90;99.90;;;;;;5043240;28;20393;-71
2021/01/21 10:35:53;;;;;;;11.45;2.08;;;9.00;99.90;;;;;;5037837;28;20022;-71
2021/01/21 10:38:19;;;;;;;10.00;1.92;;;9.00;99.90;;;;;;5043729;28;20036;-70
2021/01/21 10:40:44;;;;;;;7.75;2.25;;;8.90;99.90;;;;;;5022049;28;598592;-71
2021/01/21 10:43:10;;;;;;;8.50;1.70;;;9.00;99.90;;;;;;5048003;28;20041;-70
2021/01/21 10:45:35;;;;;;;5.93;1.30;;;9.00;99.90;;;;;;5048279;28;20103;-70
2021/01/21 10:48:01;;;;;;;8.07;1.75;;;9.10;99.90;;;;;;5040052;28;20052;-70
2021/01/21 10:50:26;;;;;;;5.20;1.50;;;9.00;99.90;;;;;;5046019;28;20442;-71
2021/01/21 10:52:53;;;;;;;6.93;1.33;;;9.00;99.90;;;;;;5035085;28;20026;-70
2021/01/21 10:55:18;;;;;;;7.68;1.98;;;9.00;99.90;;;;;;5038630;28;20029;-71
2021/01/21 10:57:44;;;;;;;9.63;2.13;;;9.10;99.90;;;;;;5045366;28;20029;-71
2021/01/21 11:00:10;;;;;;;6.95;1.85;;;9.10;99.90;;;;;;5046089;28;20048;-70
2021/01/21 11:02:36;;;;;;;8.73;1.88;;;9.10;99.90;;;;;;5043686;28;20037;-71
2021/01/21 11:05:03;;;;;;;8.93;1.10;;;9.20;99.90;;;;;;5048842;28;20049;-71
2021/01/21 11:07:29;;;;;;;6.88;1.40;;;9.10;99.90;;;;;;5047273;28;20029;-70
2021/01/21 11:09:55;;;;;;;9.70;1.52;;;9.20;99.90;;;;;;5050600;28;20021;-71
2021/01/21 11:12:21;;;;;;;11.23;1.90;;;9.20;99.90;;;;;;5045582;28;20029;-71
2021/01/21 11:14:52;;;;;;;10.25;2.13;;;9.30;99.90;;;;;;5029251;28;20091;-70
2021/01/21 11:17:18;;;;;;;9.90;1.43;;;9.30;99.90;;;;;;5047108;28;20025;-71
2021/01/21 11:19:44;;;;;;;5.45;1.40;;;9.30;99.90;;;;;;5050541;28;20699;-71
2021/01/21 11:22:10;;;;;;;8.30;1.67;;;9.30;99.90;;;;;;5042709;28;20682;-71
2021/01/21 11:24:36;;;;;;;11.90;1.75;;;9.30;99.90;;;;;;5042964;28;20021;-71
2021/01/21 11:27:02;;;;;;;8.30;1.60;;;9.20;99.90;;;;;;5046516;28;20025;-71
2021/01/21 11:29:28;;;;;;;26.73;2.58;;;9.30;99.90;;;;;;5050004;28;20504;-70
2021/01/21 11:31:54;;;;;;;5.85;1.20;;;9.30;99.90;;;;;;5044771;28;20111;-71
2021/01/21 11:34:20;;;;;;;2.38;1.00;;;9.40;99.90;;;;;;5047264;28;21011;-71
2021/01/21 11:36:47;;;;;;;11.35;1.67;;;9.40;99.90;;;;;;5047697;28;20595;-71
2021/01/21 11:39:14;;;;;;;6.13;1.63;;;9.40;99.90;;;;;;5046014;28;20409;-72
2021/01/21 11:41:40;;;;;;;7.47;1.20;;;9.40;99.90;;;;;;5044007;28;20033;-70
2021/01/21 11:44:06;;;;;;;3.60;1.08;;;9.40;99.90;;;;;;5043969;28;20041;-71
2021/01/21 11:46:32;;;;;;;5.00;1.25;;;9.40;99.90;;;;;;5046921;28;20309;-71
2021/01/21 11:48:58;;;;;;;7.85;1.55;;;9.40;99.90;;;;;;5047654;28;20490;-71
2021/01/21 11:51:25;;;;;;;7.13;1.42;;;9.30;99.90;;;;;;5045532;28;20071;-71
2021/01/21 11:53:51;;;;;;;6.03;1.30;;;9.40;99.90;;;;;;5049302;28;20532;-71
2021/01/21 11:56:17;;;;;;;6.25;1.70;;;9.50;99.90;;;;;;5032922;28;20080;-71
2021/01/21 11:58:43;;;;;;;7.65;1.33;;;9.40;99.90;;;;;;5048321;28;20090;-71
2021/01/21 12:01:09;;;;;;;5.45;1.30;;;9.40;99.90;;;;;;5050161;28;20018;-71
2021/01/21 12:03:36;;;;;;;8.15;1.33;;;9.40;99.90;;;;;;5047603;28;20427;-71
2021/01/21 12:06:02;;;;;;;7.28;1.35;;;9.40;99.90;;;;;;5053054;28;20096;-71
2021/01/21 12:08:28;;;;;;;4.13;1.30;;;9.40;99.90;;;;;;5049520;28;20075;-71
2021/01/21 12:10:57;;;;;;;3.97;1.10;;;9.40;99.90;;;;;;5054060;28;20036;-71
2021/01/21 12:13:24;;;;;;;5.68;1.38;;;9.50;99.90;;;;;;5049706;28;20432;-70
2021/01/21 12:15:49;;;;;;;4.40;1.20;;;9.40;99.90;;;;;;5048246;28;20021;-71
2021/01/21 12:18:15;;;;;;;5.95;1.48;;;9.50;99.90;;;;;;5048648;28;20044;-71
2021/01/21 12:20:41;;;;;;;9.43;1.42;;;9.40;99.90;;;;;;5047309;28;20094;-71
2021/01/21 12:23:07;;;;;;;7.72;1.30;;;9.50;99.90;;;;;;5027104;28;20412;-71
2021/01/21 12:25:32;;;;;;;5.35;1.23;;;9.50;99.90;;;;;;5053952;28;20048;-71
2021/01/21 12:27:58;;;;;;;11.20;1.40;;;9.50;99.90;;;;;;5050304;28;20055;-71
2021/01/21 12:30:24;;;;;;;7.45;1.30;;;9.50;99.90;;;;;;5052420;28;20032;-71
2021/01/21 12:32:50;;;;;;;7.78;1.50;;;9.40;99.90;;;;;;5049587;28;20091;-71
2021/01/21 12:35:16;;;;;;;7.18;1.30;;;9.40;99.90;;;;;;5051923;28;20029;-71
2021/01/21 12:37:42;;;;;;;7.95;1.50;;;9.50;99.90;;;;;;5050634;28;20033;-71
2021/01/21 12:40:08;;;;;;;8.52;1.58;;;9.50;99.90;;;;;;5048548;28;20039;-71
2021/01/21 12:42:34;;;;;;;5.40;1.00;;;9.50;99.90;;;;;;5047851;28;20048;-71
2021/01/21 12:45:00;;;;;;;7.93;1.60;;;9.40;99.90;;;;;;5052501;28;20027;-71
2021/01/21 12:47:26;;;;;;;7.05;1.67;;;9.40;99.90;;;;;;5049879;28;20041;-71
2021/01/21 12:49:51;;;;;;;12.48;2.08;;;9.50;99.90;;;;;;5048732;28;20485;-71
2021/01/21 12:52:17;;;;;;;6.00;1.52;;;9.50;99.90;;;;;;5049716;28;20320;-71
2021/01/21 12:54:47;;;;;;;7.15;1.23;;;9.60;99.90;;;;;;5047133;28;20040;-71
2021/01/21 12:57:17;;;;;;;7.32;1.30;;;9.60;99.90;;;;;;5052270;28;20039;-71